createdAt,value
2018-06-03T00:02:20.968Z,16.10
2018-06-03T00:04:48.347Z,15.03
2018-06-03T00:07:15.688Z,17.73
2018-06-03T00:09:43.066Z,15.80
2018-06-03T00:12:10.444Z,16.00
2018-06-03T00:14:37.868Z,16.03
2018-06-03T00:17:05.208Z,15.73
2018-06-03T00:19:32.643Z,17.67
2018-06-03T00:22:00.054Z,17.27
2018-06-03T00:24:27.445Z,18.33
2018-06-03T00:26:55.374Z,23.40
2018-06-03T00:29:22.797Z,23.50
2018-06-03T00:31:50.224Z,22.20
2018-06-03T00:34:17.643Z,20.87
2018-06-03T00:36:46.711Z,23.37
2018-06-03T00:39:14.151Z,22.43
2018-06-03T00:41:41.517Z,22.97
2018-06-03T00:44:08.964Z,25.33
2018-06-03T00:46:36.351Z,23.43
2018-06-03T00:49:03.991Z,22.70
2018-06-03T00:51:31.342Z,23.73
2018-06-03T00:53:58.904Z,25.97
2018-06-03T00:56:37.803Z,25.07
2018-06-03T00:59:05.209Z,26.53
2018-06-03T01:01:32.687Z,24.37
2018-06-03T01:04:00.064Z,27.90
2018-06-03T01:06:27.452Z,26.83
2018-06-03T01:08:54.848Z,28.30
2018-06-03T01:11:22.236Z,28.33
2018-06-03T01:13:49.601Z,31.07
2018-06-03T01:16:17.005Z,27.80
2018-06-03T01:18:44.442Z,33.43
2018-06-03T01:21:11.818Z,33.57
2018-06-03T01:23:39.732Z,35.03
2018-06-03T01:26:07.125Z,30.40
2018-06-03T01:28:34.537Z,32.00
2018-06-03T01:31:01.914Z,33.90
2018-06-03T01:33:29.595Z,34.80
2018-06-03T01:35:56.976Z,37.60
2018-06-03T01:38:24.367Z,36.40
2018-06-03T01:40:51.810Z,35.33
2018-06-03T01:43:19.196Z,39.70
2018-06-03T01:45:47.059Z,38.03
2018-06-03T01:48:14.454Z,39.53
2018-06-03T01:50:41.904Z,38.17
2018-06-03T01:53:09.324Z,39.07
2018-06-03T01:55:36.808Z,43.00
2018-06-03T01:58:04.200Z,43.37
2018-06-03T02:00:31.708Z,36.03
2018-06-03T02:02:59.105Z,39.00
2018-06-03T02:05:26.498Z,40.80
2018-06-03T02:07:54.264Z,40.13
2018-06-03T02:10:21.606Z,34.43
2018-06-03T02:12:49.022Z,38.63
2018-06-03T02:15:16.368Z,41.70
2018-06-03T02:17:43.738Z,36.53
2018-06-03T02:20:11.088Z,37.07
2018-06-03T02:22:38.432Z,36.53
2018-06-03T02:25:05.768Z,40.23
2018-06-03T02:27:33.165Z,37.03
2018-06-03T02:30:00.608Z,39.17
2018-06-03T02:32:28.002Z,43.20
2018-06-03T02:34:55.376Z,39.73
2018-06-03T02:37:22.709Z,41.33
2018-06-03T02:39:50.090Z,37.67
2018-06-03T02:42:17.439Z,41.63
2018-06-03T02:44:44.780Z,43.30
2018-06-03T02:47:12.171Z,44.47
2018-06-03T02:49:39.541Z,38.77
2018-06-03T02:52:06.997Z,36.87
2018-06-03T02:54:34.343Z,41.60
2018-06-03T02:57:01.680Z,39.37
2018-06-03T02:59:29.028Z,45.27
2018-06-03T03:01:56.377Z,40.37
2018-06-03T03:04:23.806Z,39.83
2018-06-03T03:06:51.297Z,40.63
2018-06-03T03:09:18.679Z,38.57
2018-06-03T03:11:46.165Z,47.00
2018-06-03T03:14:13.664Z,40.10
2018-06-03T03:16:41.053Z,47.10
2018-06-03T03:19:08.471Z,45.83
2018-06-03T03:21:36.015Z,40.53
2018-06-03T03:24:03.437Z,52.07
2018-06-03T03:26:30.848Z,47.70
2018-06-03T03:28:58.245Z,45.10
2018-06-03T03:31:25.657Z,44.43
2018-06-03T03:33:53.068Z,50.70
2018-06-03T03:36:20.508Z,49.30
2018-06-03T03:38:48.021Z,47.07
2018-06-03T03:41:15.520Z,48.63
2018-06-03T03:43:42.944Z,45.80
2018-06-03T03:46:10.352Z,49.43
2018-06-03T03:48:37.804Z,51.90
2018-06-03T03:51:05.564Z,51.90
2018-06-03T03:53:33.029Z,48.07
2018-06-03T03:56:00.892Z,50.87
2018-06-03T03:58:28.504Z,48.20
2018-06-03T04:00:55.920Z,52.63
2018-06-03T04:03:23.314Z,53.30
2018-06-03T04:05:50.782Z,47.17
2018-06-03T04:08:18.184Z,45.77
2018-06-03T04:10:45.573Z,52.40
2018-06-03T04:13:13.017Z,49.37
2018-06-03T04:15:40.387Z,47.43
2018-06-03T04:18:07.911Z,47.63
2018-06-03T04:20:35.299Z,40.57
2018-06-03T04:23:03.088Z,47.00
2018-06-03T04:25:30.525Z,45.70
2018-06-03T04:27:58.118Z,46.30
2018-06-03T04:30:25.539Z,47.13
2018-06-03T04:32:52.963Z,42.03
2018-06-03T04:35:20.401Z,44.03
2018-06-03T04:37:47.890Z,46.10
2018-06-03T04:40:16.857Z,47.27
2018-06-03T04:42:44.320Z,42.40
2018-06-03T04:45:11.732Z,44.77
2018-06-03T04:47:39.107Z,47.43
2018-06-03T04:50:06.523Z,43.90
2018-06-03T04:52:34.032Z,44.77
2018-06-03T04:55:01.450Z,42.50
2018-06-03T04:57:28.856Z,41.50
2018-06-03T04:59:56.251Z,39.07
2018-06-03T05:02:24.074Z,37.23
2018-06-03T05:04:51.460Z,39.43
2018-06-03T05:07:18.898Z,35.90
2018-06-03T05:09:46.318Z,42.10
2018-06-03T05:12:14.065Z,42.07
2018-06-03T05:14:41.457Z,42.60
2018-06-03T05:17:08.881Z,50.17
2018-06-03T05:19:36.387Z,51.80
2018-06-03T05:22:04.244Z,48.57
2018-06-03T05:24:31.691Z,47.40
2018-06-03T05:26:59.129Z,45.73
2018-06-03T05:29:26.727Z,53.00
2018-06-03T05:31:54.195Z,48.30
2018-06-03T05:34:21.643Z,49.33
2018-06-03T05:36:49.085Z,53.17
2018-06-03T05:39:16.507Z,50.60
2018-06-03T05:41:43.888Z,55.70
2018-06-03T05:44:11.420Z,54.57
2018-06-03T05:46:39.019Z,50.83
2018-06-03T05:49:06.466Z,55.07
2018-06-03T05:51:34.135Z,50.50
2018-06-03T05:54:01.535Z,55.40
2018-06-03T05:56:28.959Z,50.53
2018-06-03T05:58:56.679Z,55.20
2018-06-03T06:01:24.106Z,51.03
2018-06-03T06:03:51.706Z,49.10
2018-06-03T06:06:19.084Z,52.60
2018-06-03T06:08:46.521Z,54.90
2018-06-03T06:11:13.901Z,52.23
2018-06-03T06:13:41.290Z,47.77
2018-06-03T06:16:08.672Z,50.23
2018-06-03T06:18:36.133Z,51.43
2018-06-03T06:21:03.501Z,44.50
2018-06-03T06:23:30.904Z,51.20
2018-06-03T06:25:58.268Z,50.50
2018-06-03T06:28:25.625Z,49.47
2018-06-03T06:30:53.104Z,45.53
2018-06-03T06:33:20.486Z,47.30
2018-06-03T06:35:47.845Z,43.90
2018-06-03T06:38:15.236Z,43.40
2018-06-03T06:40:43.049Z,48.97
2018-06-03T06:43:10.837Z,51.63
2018-06-03T06:45:38.217Z,44.30
2018-06-03T06:48:05.616Z,47.43
2018-06-03T06:50:33.002Z,44.27
2018-06-03T06:53:00.803Z,49.37
2018-06-03T06:55:28.169Z,45.40
2018-06-03T06:57:55.583Z,50.50
2018-06-03T07:00:22.977Z,46.90
2018-06-03T07:02:50.891Z,45.83
2018-06-03T07:05:18.309Z,52.77
2018-06-03T07:07:45.829Z,54.73
2018-06-03T07:10:13.333Z,52.00
2018-06-03T07:12:40.728Z,48.27
2018-06-03T07:15:08.139Z,43.30
2018-06-03T07:17:35.594Z,49.87
2018-06-03T07:20:04.348Z,51.50
2018-06-03T07:22:31.805Z,45.37
2018-06-03T07:24:59.266Z,48.80
2018-06-03T07:27:26.656Z,49.60
2018-06-03T07:29:54.112Z,50.10
2018-06-03T07:32:21.562Z,46.83
2018-06-03T07:34:48.995Z,44.90
2018-06-03T07:37:16.356Z,48.63
2018-06-03T07:39:43.749Z,50.63
2018-06-03T07:42:11.223Z,49.37
2018-06-03T07:44:38.596Z,48.97
2018-06-03T07:47:05.992Z,49.33
2018-06-03T07:49:33.593Z,48.80
2018-06-03T07:52:00.984Z,49.30
2018-06-03T07:54:33.040Z,47.87
2018-06-03T07:57:00.477Z,45.00
2018-06-03T07:59:28.932Z,46.50
2018-06-03T08:01:56.355Z,46.70
2018-06-03T08:04:23.740Z,44.37
2018-06-03T08:06:51.292Z,45.47
2018-06-03T08:09:18.696Z,52.40
2018-06-03T08:11:47.524Z,44.97
2018-06-03T08:14:14.952Z,43.20
2018-06-03T08:16:42.355Z,42.20
2018-06-03T08:19:09.728Z,45.80
2018-06-03T08:21:37.215Z,36.47
2018-06-03T08:24:04.672Z,38.33
2018-06-03T08:26:32.072Z,38.23
2018-06-03T08:28:59.548Z,37.03
2018-06-03T08:31:26.973Z,33.47
2018-06-03T08:33:54.387Z,32.17
2018-06-03T08:36:22.495Z,35.00
2018-06-03T08:38:49.916Z,33.50
2018-06-03T08:41:17.317Z,36.00
2018-06-03T08:43:44.804Z,33.70
2018-06-03T08:46:13.701Z,38.87
2018-06-03T08:48:41.095Z,34.73
2018-06-03T08:51:09.575Z,41.00
2018-06-03T08:53:37.078Z,34.07
2018-06-03T08:56:04.493Z,33.80
2018-06-03T08:58:32.051Z,34.87
2018-06-03T09:00:59.449Z,35.47
2018-06-03T09:03:29.197Z,33.00
2018-06-03T09:05:56.632Z,32.50
2018-06-03T09:08:24.735Z,35.20
2018-06-03T09:10:52.141Z,35.23
2018-06-03T09:13:19.682Z,34.90
2018-06-03T09:15:47.206Z,32.73
2018-06-03T09:18:14.541Z,36.93
2018-06-03T09:20:41.962Z,36.80
2018-06-03T09:23:09.327Z,36.83
2018-06-03T09:25:36.900Z,36.13
2018-06-03T09:28:04.258Z,35.27
2018-06-03T09:30:31.589Z,37.80
2018-06-03T09:32:58.945Z,34.63
2018-06-03T09:35:26.296Z,38.00
2018-06-03T09:37:53.672Z,35.17
2018-06-03T09:40:21.024Z,39.97
2018-06-03T09:42:48.372Z,38.40
2018-06-03T09:45:15.837Z,38.00
2018-06-03T09:47:43.224Z,38.30
2018-06-03T09:50:11.512Z,36.20
2018-06-03T09:52:38.873Z,38.17
2018-06-03T09:55:06.235Z,34.90
2018-06-03T09:57:33.589Z,36.97
2018-06-03T10:00:00.923Z,33.30
2018-06-03T10:02:28.342Z,37.13
2018-06-03T10:04:55.752Z,34.23
2018-06-03T10:07:23.186Z,34.30
2018-06-03T10:09:50.608Z,33.80
2018-06-03T10:12:18.025Z,33.80
2018-06-03T10:14:45.426Z,34.33
2018-06-03T10:17:12.831Z,33.27
2018-06-03T10:19:40.211Z,30.23
2018-06-03T10:22:07.605Z,33.60
2018-06-03T10:24:35.212Z,31.93
2018-06-03T10:27:02.729Z,31.43
2018-06-03T10:29:31.374Z,31.07
2018-06-03T10:31:58.896Z,31.30
2018-06-03T10:34:26.296Z,29.40
2018-06-03T10:36:53.723Z,29.00
2018-06-03T10:39:21.118Z,29.77
2018-06-03T10:41:48.595Z,33.70
2018-06-03T10:44:15.996Z,29.30
2018-06-03T10:46:43.615Z,29.80
2018-06-03T10:49:11.043Z,31.50
2018-06-03T10:51:38.607Z,29.13
2018-06-03T10:54:06.213Z,30.93
2018-06-03T10:56:33.592Z,29.37
2018-06-03T10:59:02.381Z,29.53
2018-06-03T11:01:29.793Z,30.50
2018-06-03T11:03:57.252Z,28.57
2018-06-03T11:06:24.629Z,29.07
2018-06-03T11:08:52.163Z,30.47
2018-06-03T11:11:19.677Z,26.47
2018-06-03T11:13:47.212Z,29.37
2018-06-03T11:16:14.560Z,28.70
2018-06-03T11:18:41.947Z,29.87
2018-06-03T11:21:09.301Z,27.27
2018-06-03T11:23:36.716Z,28.10
2018-06-03T11:26:04.206Z,27.53
2018-06-03T11:28:35.583Z,27.77
2018-06-03T11:31:02.989Z,28.10
2018-06-03T11:33:30.313Z,25.70
2018-06-03T11:35:57.671Z,27.67
2018-06-03T11:38:25.390Z,27.20
2018-06-03T11:40:52.768Z,27.83
2018-06-03T11:43:22.790Z,28.03
2018-06-03T11:45:50.104Z,29.90
2018-06-03T11:48:17.443Z,28.23
2018-06-03T11:50:44.802Z,27.97
2018-06-03T11:53:12.174Z,29.90
2018-06-03T11:55:43.883Z,29.47
2018-06-03T11:58:54.250Z,29.53
2018-06-03T12:01:22.061Z,28.70
2018-06-03T12:03:49.396Z,29.33
2018-06-03T12:06:17.920Z,30.27
2018-06-03T12:08:46.577Z,32.40
2018-06-03T12:11:13.771Z,32.83
2018-06-03T12:13:41.264Z,28.07
2018-06-03T12:16:08.641Z,30.47
2018-06-03T12:18:36.036Z,26.83
2018-06-03T12:21:03.429Z,28.87
2018-06-03T12:23:32.407Z,30.13
2018-06-03T12:25:59.769Z,29.30
2018-06-03T12:28:27.122Z,28.77
2018-06-03T12:30:54.544Z,29.43
2018-06-03T12:33:41.634Z,28.10
2018-06-03T12:36:09.116Z,26.53
2018-06-03T12:38:36.579Z,29.57
2018-06-03T12:41:04.016Z,26.90
2018-06-03T12:43:31.383Z,29.80
2018-06-03T12:46:03.187Z,24.50
2018-06-03T12:48:30.592Z,28.50
2018-06-03T12:50:57.996Z,25.50
2018-06-03T12:53:25.496Z,28.70
2018-06-03T12:55:52.908Z,24.77
2018-06-03T12:58:20.300Z,25.77
2018-06-03T13:00:47.660Z,26.27
2018-06-03T13:03:18.022Z,24.83
2018-06-03T13:05:45.428Z,26.37
2018-06-03T13:08:12.801Z,27.93
2018-06-03T13:10:40.227Z,26.03
2018-06-03T13:13:07.636Z,26.53
2018-06-03T13:15:35.011Z,25.63
2018-06-03T13:18:06.691Z,26.67
2018-06-03T13:20:33.985Z,24.93
2018-06-03T13:23:01.388Z,25.47
2018-06-03T13:25:28.788Z,24.50
2018-06-03T13:27:56.284Z,22.47
2018-06-03T13:30:23.744Z,23.03
2018-06-03T13:32:51.156Z,22.53
2018-06-03T13:35:20.277Z,23.43
2018-06-03T13:37:47.677Z,23.00
2018-06-03T13:40:15.035Z,24.73
2018-06-03T13:42:42.416Z,22.73
2018-06-03T13:45:09.799Z,23.20
2018-06-03T13:47:37.288Z,20.90
2018-06-03T13:50:08.356Z,20.90
2018-06-03T13:52:36.122Z,22.43
2018-06-03T13:55:03.543Z,21.40
2018-06-03T13:57:30.995Z,21.27
2018-06-03T13:59:58.352Z,19.33
2018-06-03T14:02:25.750Z,20.73
2018-06-03T14:04:56.987Z,18.90
2018-06-03T14:07:24.365Z,19.00
2018-06-03T14:09:51.788Z,20.67
2018-06-03T14:12:19.201Z,21.93
2018-06-03T14:14:46.598Z,18.63
2018-06-03T14:17:13.998Z,17.63
2018-06-03T14:19:44.519Z,18.40
2018-06-03T14:22:12.043Z,17.00
2018-06-03T14:24:39.403Z,17.90
2018-06-03T14:27:06.791Z,18.90
2018-06-03T14:29:34.153Z,17.23
2018-06-03T14:32:05.947Z,18.43
2018-06-03T14:34:33.328Z,17.43
2018-06-03T14:37:00.759Z,18.93
2018-06-03T14:39:28.131Z,17.63
2018-06-03T14:41:55.591Z,17.37
2018-06-03T14:44:23.002Z,17.13
2018-06-03T14:46:52.528Z,18.60
2018-06-03T14:49:19.880Z,17.70
2018-06-03T14:51:47.249Z,16.70
2018-06-03T14:54:14.623Z,17.53
2018-06-03T14:56:41.991Z,16.80
2018-06-03T14:59:11.447Z,15.70
2018-06-03T15:01:41.937Z,17.40
2018-06-03T15:04:09.336Z,16.93
2018-06-03T15:06:36.847Z,17.00
2018-06-03T15:09:06.479Z,15.80
2018-06-03T15:11:33.896Z,17.60
2018-06-03T15:14:03.771Z,17.80
2018-06-03T15:16:31.187Z,17.57
2018-06-03T15:18:58.618Z,16.30
2018-06-03T15:21:26.062Z,15.83
2018-06-03T15:23:53.566Z,15.33
2018-06-03T15:26:22.785Z,15.50
2018-06-03T15:28:52.498Z,14.40
2018-06-03T15:31:19.973Z,15.40
2018-06-03T15:33:47.406Z,16.23
2018-06-03T15:36:14.762Z,14.37
2018-06-03T15:38:42.140Z,15.00
2018-06-03T15:41:09.502Z,14.27
2018-06-03T15:43:38.496Z,14.90
2018-06-03T15:46:06.001Z,12.97
2018-06-03T15:48:33.617Z,14.03
2018-06-03T15:51:01.015Z,13.37
2018-06-03T15:53:28.399Z,13.80
2018-06-03T15:55:55.772Z,12.47
2018-06-03T15:58:24.457Z,12.43
2018-06-03T16:00:51.843Z,13.23
2018-06-03T16:03:19.207Z,12.37
2018-06-03T16:05:46.592Z,11.40
2018-06-03T16:08:13.987Z,11.47
2018-06-03T16:10:41.392Z,12.70
2018-06-03T16:13:08.962Z,11.13
2018-06-03T16:15:37.616Z,10.10
2018-06-03T16:18:05.040Z,10.43
2018-06-03T16:20:32.595Z,12.00
2018-06-03T16:23:00.004Z,11.70
2018-06-03T16:25:27.408Z,11.17
2018-06-03T16:27:54.835Z,11.90
2018-06-03T16:30:25.905Z,11.17
2018-06-03T16:32:53.396Z,11.57
2018-06-03T16:35:20.812Z,10.07
2018-06-03T16:37:48.306Z,10.50
2018-06-03T16:40:15.647Z,10.57
2018-06-03T16:42:43.032Z,9.83
2018-06-03T16:45:10.479Z,10.47
2018-06-03T16:47:39.076Z,9.93
2018-06-03T16:50:06.546Z,10.63
2018-06-03T16:52:33.997Z,9.97
2018-06-03T16:55:01.436Z,10.43
2018-06-03T16:57:28.848Z,10.73
2018-06-03T16:59:56.272Z,10.83
2018-06-03T17:02:27.605Z,10.93
2018-06-03T17:04:55.127Z,10.43
2018-06-03T17:07:22.547Z,10.17
2018-06-03T17:09:49.936Z,9.50
2018-06-03T17:12:17.352Z,10.27
2018-06-03T17:14:44.799Z,11.03
2018-06-03T17:17:12.216Z,11.67
2018-06-03T17:19:39.667Z,10.43
2018-06-03T17:22:07.070Z,10.80
2018-06-03T17:24:34.732Z,9.80
2018-06-03T17:27:02.987Z,10.47
2018-06-03T17:29:31.771Z,10.37
2018-06-03T17:32:00.695Z,10.83
2018-06-03T17:34:28.162Z,11.10
2018-06-03T17:36:55.512Z,9.43
2018-06-03T17:39:22.933Z,11.17
2018-06-03T17:41:50.406Z,10.30
2018-06-03T17:44:21.475Z,12.90
2018-06-03T17:46:49.379Z,12.83
2018-06-03T17:49:16.864Z,12.57
2018-06-03T17:51:44.255Z,13.03
2018-06-03T17:54:12.012Z,12.47
2018-06-03T17:56:39.441Z,12.07
2018-06-03T17:59:10.032Z,11.40
2018-06-03T18:01:37.537Z,11.83
2018-06-03T18:04:04.960Z,11.30
2018-06-03T18:06:32.518Z,11.60
2018-06-03T18:08:59.911Z,10.37
2018-06-03T18:11:32.423Z,11.87
2018-06-03T18:13:59.900Z,10.00
2018-06-03T18:16:27.351Z,10.70
2018-06-03T18:18:54.802Z,10.00
2018-06-03T18:21:22.216Z,12.43
2018-06-03T18:23:49.623Z,11.43
2018-06-03T18:26:18.446Z,11.20
2018-06-03T18:28:45.852Z,10.17
2018-06-03T18:31:13.256Z,9.97
2018-06-03T18:33:40.663Z,10.57
2018-06-03T18:36:08.047Z,9.20
2018-06-03T18:38:36.486Z,16.43
2018-06-03T18:41:04.366Z,9.70
2018-06-03T18:43:31.836Z,9.33
2018-06-03T18:45:59.242Z,10.67
2018-06-03T18:48:27.511Z,9.93
2018-06-03T18:50:55.036Z,8.80
2018-06-03T18:53:25.878Z,9.30
2018-06-03T18:55:53.339Z,9.87
2018-06-03T18:58:20.844Z,10.80
2018-06-03T19:00:48.348Z,9.53
2018-06-03T19:03:15.939Z,9.07
2018-06-03T19:05:45.240Z,9.00
2018-06-03T19:08:15.296Z,9.80
2018-06-03T19:10:42.480Z,8.83
2018-06-03T19:13:09.737Z,10.40
2018-06-03T19:15:37.058Z,9.40
2018-06-03T19:18:04.489Z,8.70
2018-06-03T19:20:31.702Z,8.90
2018-06-03T19:22:58.951Z,8.90
2018-06-03T19:25:26.189Z,8.70
2018-06-03T19:27:53.383Z,9.43
2018-06-03T19:30:20.780Z,8.60
2018-06-03T19:32:47.986Z,9.20
2018-06-03T19:35:15.193Z,9.10
2018-06-03T19:37:42.405Z,9.10
2018-06-03T19:40:09.619Z,8.40
2018-06-03T19:42:36.861Z,9.37
2018-06-03T19:45:04.216Z,9.37
2018-06-03T19:47:31.420Z,8.30
2018-06-03T19:49:58.703Z,10.10
2018-06-03T19:52:25.974Z,9.53
2018-06-03T19:54:53.128Z,9.13
2018-06-03T19:57:20.332Z,10.20
2018-06-03T19:59:47.550Z,9.90
2018-06-03T20:02:14.787Z,9.63
2018-06-03T20:04:42.987Z,8.93
2018-06-03T20:07:10.963Z,8.77
2018-06-03T20:09:42.090Z,9.37
2018-06-03T20:12:09.329Z,10.73
2018-06-03T20:14:36.623Z,9.73
2018-06-03T20:17:03.840Z,10.57
2018-06-03T20:19:31.269Z,12.73
2018-06-03T20:22:03.536Z,10.50
2018-06-03T20:24:30.885Z,9.47
2018-06-03T20:26:58.272Z,10.47
2018-06-03T20:29:25.467Z,10.50
2018-06-03T20:31:52.682Z,9.00
2018-06-03T20:34:19.971Z,10.17
2018-06-03T20:36:47.185Z,10.03
2018-06-03T20:39:14.384Z,11.43
2018-06-03T20:41:41.581Z,11.43
2018-06-03T20:44:08.772Z,10.77
2018-06-03T20:46:36.039Z,10.10
2018-06-03T20:49:03.247Z,10.87
2018-06-03T20:51:30.436Z,10.30
2018-06-03T20:53:57.639Z,11.27
2018-06-03T20:56:24.844Z,10.27
2018-06-03T20:58:52.027Z,11.90
2018-06-03T21:01:19.281Z,11.23
2018-06-03T21:03:46.473Z,11.80
2018-06-03T21:06:13.668Z,10.40
2018-06-03T21:08:40.919Z,11.60
2018-06-03T21:11:08.102Z,11.07
2018-06-03T21:13:35.280Z,12.10
2018-06-03T21:16:02.481Z,10.73
2018-06-03T21:18:29.645Z,11.40
2018-06-03T21:20:56.913Z,11.07
2018-06-03T21:23:24.079Z,11.93
2018-06-03T21:25:51.276Z,11.93
2018-06-03T21:28:18.440Z,12.47
2018-06-03T21:30:45.950Z,11.50
2018-06-03T21:33:13.163Z,13.03
2018-06-03T21:35:40.395Z,12.60
2018-06-03T21:38:07.620Z,12.20
2018-06-03T21:40:34.796Z,13.80
2018-06-03T21:43:02.072Z,12.80
2018-06-03T21:45:29.252Z,12.30
2018-06-03T21:47:56.452Z,12.80
2018-06-03T21:50:24.048Z,13.20
2018-06-03T21:52:51.228Z,12.47
2018-06-03T21:55:18.456Z,13.27
2018-06-03T21:57:45.619Z,13.10
2018-06-03T22:00:12.824Z,13.03
2018-06-03T22:02:40.105Z,13.50
2018-06-03T22:05:07.348Z,12.90
2018-06-03T22:07:36.225Z,13.00
2018-06-03T22:10:03.649Z,12.50
2018-06-03T22:12:31.070Z,12.93
2018-06-03T22:14:58.757Z,12.27
2018-06-03T22:17:26.179Z,13.00
2018-06-03T22:19:58.017Z,14.10
2018-06-03T22:22:25.465Z,13.00
2018-06-03T22:24:53.018Z,13.83
2018-06-03T22:27:20.372Z,14.43
2018-06-03T22:29:47.771Z,13.00
2018-06-03T22:32:15.175Z,14.77
2018-06-03T22:34:42.588Z,13.47
2018-06-03T22:37:09.963Z,13.87
2018-06-03T22:39:37.432Z,14.47
2018-06-03T22:42:04.831Z,13.30
2018-06-03T22:44:32.432Z,15.17
2018-06-03T22:46:59.833Z,15.10
2018-06-03T22:49:27.220Z,15.63
2018-06-03T22:51:54.594Z,15.13
2018-06-03T22:54:22.047Z,14.50
2018-06-03T22:57:54.518Z,14.27
2018-06-03T23:00:37.631Z,15.47
2018-06-03T23:03:10.569Z,14.60
2018-06-03T23:05:38.279Z,16.10
2018-06-03T23:08:05.529Z,15.23
2018-06-03T23:10:32.839Z,16.20
2018-06-03T23:13:00.019Z,15.37
2018-06-03T23:15:27.264Z,14.73
2018-06-03T23:17:54.487Z,15.00
2018-06-03T23:20:21.724Z,15.23
2018-06-03T23:22:48.948Z,14.50
2018-06-03T23:25:16.154Z,14.53
2018-06-03T23:27:43.427Z,15.87
2018-06-03T23:30:10.652Z,15.63
2018-06-03T23:32:37.967Z,15.47
2018-06-03T23:35:05.154Z,15.37
2018-06-03T23:37:32.387Z,16.20
2018-06-03T23:39:59.592Z,15.20
2018-06-03T23:42:26.776Z,16.40
2018-06-03T23:44:53.995Z,15.47
2018-06-03T23:47:21.175Z,16.37
2018-06-03T23:49:48.376Z,21.37
2018-06-03T23:52:15.695Z,15.10
2018-06-03T23:54:43.049Z,16.83
2018-06-03T23:57:10.320Z,15.80
2018-06-03T23:59:37.624Z,17.13
